Etusivu
METAR-TAF:

METAR-TAF

Lentoasemat :

Providenciales, Turks- ja Caicossaaret

Leveyspiiri: 21-46-25N, Pituuspiiri: 072-15-57W, korkeus merenpinnasta: 5 m

Tämänhetkinen sää

Tämä raportti tehtiin 2 tuntia ja 23 minuuttia sitten, kello 00.00 UTC
Tuuli 4 kn etelästä/kaakosta
Lämpötila 23°C
Kosteus 61%
Ilmanpaine 1013 hPa
Näkyvyys 10 km tai enemmän
Muutamia pilviä 1200 ft:n korkeudessa

METAR: MBPV 240000Z 15004KT 9999 FEW012 23/15 Q1013

Aika: 21:23 (02:23 UTC)

Sääennuste

Tämä raportti tehtiin 3 tuntia ja 8 minuuttia sitten, kello 23.15 UTC
Ennuste voimassa 24. päivästä klo 00 UTC - 24. päivään klo 24 UTC
Tuuli 3 kn etelästä/kaakosta
Näkyvyys 10 km tai enemmän
ei pilviä alle 1500 m:ssä eikä cumulonimbus-pilviä
From UTC
Tuuli 8 kn etelästä/lounaasta
Näkyvyys 10 km tai enemmän
Hajanaisia pilviä 2000 ft:n korkeudessa

TAF: MBPV 232315Z 2400/2424 16003KT 9999 CAVOK FM 241200 20008KT 9999 SCT020

Säähavainnot ja -ennusteet yli 4000 lentoasemalta (METAR- ja TAF-raportit).

Käytössä olevat sääasemat on merkitty karttaan keltaisilla ja punaisilla pisteillä.

Aseta hiiri pisteen päälle nähdäksesi sääaseman nimen.

Klikkaa sitten nähdäksesi säähavainnot ja -ennusteet.

Kartan vaihtaminen: klikkaa mustalla rastilla varustettuja vihreitä pisteitä, niin voit zoomata sisään; viivalla varustettua vihreää pistettä, niin voit zoomata ulos tai vihreitä nuolia, niin pääset viereisille kartoille.


METAR-TAF: